CW6888 Weather Reports


Display with metric or nautical units.
time (UTC)temp
F
wind
direction
speed
MPH
gust
MPH
rain 1hr
in
rain 24hr
in
rain mn
in
humidity
%
barometer
mb
20200329142034 47 347 3.0 5.0 0.00 0.28 0.01 98 1014.2
20200329141027 47 83 3.0 4.0 0.00 0.28 0.01 99 1014.1
20200329140045 46 229 2.0 5.0 0.00 0.28 0.01 99 1015.6
20200329135035 46 268 3.0 10.0 0.00 0.28 0.01 99 1014.9
20200329134026 46 58 3.0 8.0 0.00 0.28 0.01 99 1014.1
20200329133021 46 58 1.0 5.0 0.00 0.28 0.01 99 1015.1
20200329132036 46 155 3.0 6.0 0.00 0.28 0.01 98 1015.3
20200329131030 46 17 2.0 4.0 0.00 0.28 0.01 99 1014.7
20200329130052 46 84 1.0 3.0 0.00 0.28 0.01 98 1015.0
20200329125023 46 83 2.0 3.0 0.00 0.59 0.01 98 1014.8
20200329124036 46 71 1.0 3.0 0.00 0.59 0.01 99 1014.6
20200329123020 46 61 0.0 4.0 0.00 0.59 0.01 99 1014.8
20200329122035 46 62 2.0 4.0 0.00 0.59 0.01 99 1014.7
20200329121026 46 41 1.0 3.0 0.00 0.59 0.01 99 1014.7
20200329120052 46 111 1.0 3.0 0.00 0.59 0.01 98 1014.3
20200329115020 45 23 1.0 6.0 0.00 0.63 0.01 98 1014.7
20200329114030 45 142 1.0 2.0 0.00 0.63 0.01 98 1014.0
20200329113021 45 142 2.0 4.0 0.00 0.63 0.01 98 1014.3
20200329112034 45 123 0.0 0.0 0.00 0.63 0.01 98 1014.2
20200329111027 45 123 0.0 0.0 0.00 0.63 0.01 98 1013.7
20200329110051 46 123 0.0 0.0 0.00 0.63 0.01 98 1013.8
20200329105024 46 123 0.0 0.0 0.00 0.72 0.01 98 1013.9
20200329104017 46 126 0.0 0.0 0.00 0.72 0.01 98 1013.4
20200329103032 46 64 0.0 0.0 0.00 0.72 0.01 98 1013.8
20200329102022 46 342 0.0 0.0 0.00 0.72 0.01 98 1014.3
20200329101035 46 342 0.0 0.0 0.00 0.72 0.01 98 1013.7
20200329100044 46 342 0.0 0.0 0.01 0.72 0.01 98 1013.5
20200329095018 46 117 0.0 0.0 0.01 0.78 0.01 98 1012.2
20200329094031 46 75 0.0 0.0 0.01 0.78 0.01 98 1012.9
20200329093021 45 155 0.0 0.0 0.01 0.78 0.01 98 1012.6
20200329092034 45 155 0.0 0.0 0.01 0.78 0.01 98 1012.6
20200329091028 45 155 0.0 2.0 0.01 0.78 0.01 98 1012.5
20200329090051 45 155 1.0 3.0 0.00 0.77 0.00 98 1013.0
20200329085023 45 155 2.0 5.0 0.00 0.86 0.00 98 1013.0
20200329084016 45 146 3.0 4.0 0.00 0.86 0.00 98 1013.0
20200329083027 45 137 0.0 0.0 0.00 0.86 0.00 98 1013.1
20200329082023 45 67 0.0 0.0 0.00 0.86 0.00 98 1013.1
20200329081035 45 79 0.0 0.0 0.00 0.86 0.00 98 1013.7
20200329075028 45 45 2.0 6.0 0.00 0.90 0.00 98 1014.0
20200329074021 45 90 2.0 6.0 0.00 0.90 0.00 98 1013.8
20200329073034 45 59 4.0 8.0 0.00 0.90 0.00 98 1013.6
20200329072026 46 55 4.0 9.0 0.00 0.90 0.00 98 1014.3
20200329071021 46 15 4.0 8.0 0.00 0.90 0.00 98 1014.8
20200329070044 46 13 2.0 6.0 0.00 0.90 0.00 98 1014.7
20200329065031 46 343 2.0 6.0 0.00 0.92 0.00 98 1014.5
20200329064018 46 42 4.0 7.0 0.00 0.92 0.00 98 1014.6
20200329062034 46 5 5.0 11.0 0.00 0.92 0.00 98 1015.4
20200329061104 46 5 3.0 10.0 0.00 0.92 0.00 98 1015.3
20200329060040 46 42 6.0 10.0 0.00 0.92 0.00 98 1015.2
20200329055023 46 33 5.0 10.0 0.00 0.92 0.00 98 1014.9
20200329054032 47 24 5.0 10.0 0.00 0.92 0.00 98 1014.8
20200329053019 47 33 3.0 9.0 0.00 0.92 0.00 98 1014.4
20200329052024 47 69 4.0 9.0 0.00 0.92 0.00 98 1014.6
20200329051017 47 11 3.0 9.0 0.00 0.92 0.00 98 1014.7
20200329050056 47 17 6.0 9.0 0.00 0.92 0.00 98 1014.8
20200329045024 47 16 2.0 6.0 0.00 0.92 0.00 98 1015.0
20200329044032 47 36 4.0 6.0 0.00 0.92 0.00 98 1015.0
20200329043019 47 41 2.0 8.0 0.00 0.92 0.00 98 1014.8
20200329042030 47 346 4.0 8.0 0.00 0.92 0.00 98 1014.9
20200329041020 47 5 3.0 5.0 0.00 0.92 0.00 98 1014.8
20200329040054 47 63 1.0 3.0 0.00 0.92 0.00 98 1014.5
20200329035022 47 13 1.0 3.0 0.00 0.92 0.92 98 1014.9
20200329034030 47 52 2.0 5.0 0.00 0.92 0.92 98 1014.6
20200329033019 47 9 4.0 7.0 0.00 0.92 0.92 98 1014.5
20200329032032 47 349 0.0 0.0 0.00 0.92 0.92 98 1014.5
20200329031025 47 315 0.0 2.0 0.00 0.92 0.92 98 1014.4
20200329030048 47 208 0.0 6.0 0.00 0.92 0.92 98 1014.0
20200329025018 47 157 5.0 7.0 0.00 0.92 0.92 98 1013.8
20200329024021 47 175 2.0 5.0 0.00 0.92 0.92 98 1014.2
20200329023032 46 171 4.0 6.0 0.00 0.92 0.92 98 1013.9
20200329022021 46 159 4.0 5.0 0.00 0.92 0.92 98 1014.0
20200329021031 46 157 4.0 5.0 0.00 0.92 0.92 98 1014.3
20200329020052 46 164 3.0 7.0 0.01 0.92 0.92 98 1014.4
20200329015021 46 159 5.0 7.0 0.01 0.92 0.92 98 1014.3
20200329014029 46 147 3.0 7.0 0.01 0.92 0.92 97 1015.0
20200329013019 46 177 3.0 7.0 0.01 0.92 0.92 97 1015.5
20200329012024 46 71 2.0 4.0 0.01 0.92 0.92 97 1016.1
20200329011032 46 344 2.0 5.0 0.01 0.92 0.92 97 1016.4
20200329010050 46 48 3.0 8.0 0.00 0.91 0.91 97 1016.0
20200329005034 46 69 3.0 6.0 0.00 0.91 0.91 97 1016.4
20200329004021 46 60 1.0 9.0 0.00 0.91 0.91 97 1016.9
20200329003028 46 16 5.0 9.0 0.00 0.91 0.91 97 1016.9
20200329002034 46 50 6.0 10.0 0.00 0.91 0.91 97 1016.4
20200329001017 46 25 3.0 6.0 0.00 0.91 0.91 97 1016.0
20200329000054 46 63 2.0 6.0 0.00 0.91 0.91 97 1015.4
20200328235019 46 53 1.0 6.0 0.00 0.91 0.91 97 1015.2
20200328234026 46 71 3.0 4.0 0.00 0.91 0.91 97 1015.2
20200328233022 46 40 1.0 4.0 0.00 0.91 0.91 97 1015.6
20200328232016 46 107 0.0 0.0 0.00 0.91 0.91 97 1015.1
20200328231032 46 129 0.0 0.0 0.00 0.91 0.91 97 1015.0
20200328225026 46 126 0.0 3.0 0.00 0.91 0.91 97 1014.8
20200328224019 46 127 2.0 3.0 0.00 0.91 0.91 97 1015.1
20200328223028 47 75 1.0 8.0 0.00 0.91 0.91 97 1015.0
20200328222022 47 40 2.0 4.0 0.00 0.91 0.91 97 1015.4
20200328221030 47 84 2.0 4.0 0.00 0.91 0.91 97 1015.0
20200328220056 47 75 2.0 4.0 0.00 0.91 0.91 97 1014.8
20200328215024 47 123 1.0 5.0 0.00 0.91 0.91 97 1014.7
20200328214016 47 126 2.0 5.0 0.00 0.91 0.91 97 1014.5
20200328213028 47 130 3.0 5.0 0.00 0.91 0.91 97 1014.4
20200328212023 47 132 3.0 5.0 0.00 0.91 0.91 97 1014.7
20200328211034 47 99 1.0 4.0 0.00 0.91 0.91 97 1014.8
20200328210054 47 144 3.0 7.0 0.00 0.91 0.91 97 1014.4
20200328205026 47 155 4.0 8.0 0.00 0.91 0.91 97 1014.3
20200328204027 47 153 3.0 8.0 0.00 0.91 0.91 97 1014.4
20200328203020 47 134 4.0 9.0 0.00 0.91 0.91 97 1014.3
20200328202030 47 155 4.0 7.0 0.00 0.91 0.91 97 1014.0
20200328201021 47 141 4.0 8.0 0.00 0.91 0.91 97 1013.8
20200328200041 47 149 6.0 10.0 0.00 0.91 0.91 97 1013.5
20200328195023 47 144 6.0 9.0 0.00 0.91 0.91 96 1013.8
20200328194030 47 128 5.0 9.0 0.00 0.91 0.91 96 1014.0
20200328193020 48 126 3.0 7.0 0.00 0.91 0.91 97 1014.4
20200328192025 48 147 4.0 8.0 0.00 0.91 0.91 97 1014.5
20200328191035 48 131 3.0 8.0 0.00 0.91 0.91 97 1014.7
20200328190057 48 136 4.0 8.0 0.00 0.91 0.91 97 1014.4
20200328185020 49 138 3.0 8.0 0.00 0.91 0.91 97 1014.6
20200328184036 49 140 4.0 8.0 0.00 0.91 0.91 97 1014.8
20200328183026 49 146 5.0 9.0 0.00 0.91 0.91 97 1014.8
20200328182035 48 142 6.0 8.0 0.00 0.91 0.91 97 1015.0
20200328181028 48 130 5.0 8.0 0.00 0.91 0.91 97 1015.2
20200328180040 48 139 3.0 9.0 0.00 0.91 0.91 97 1015.5
20200328175029 48 142 6.0 11.0 0.01 0.91 0.91 97 1015.6
20200328174019 49 156 4.0 8.0 0.02 0.91 0.91 97 1016.0
20200328173032 49 148 5.0 8.0 0.02 0.91 0.91 97 1016.0
20200328172029 49 127 3.0 9.0 0.03 0.91 0.91 97 1016.1
20200328171020 50 132 3.0 8.0 0.03 0.91 0.91 97 1016.0
20200328170040 50 141 4.0 8.0 0.03 0.91 0.91 97 1015.9
20200328165026 49 140 4.0 5.0 0.02 0.90 0.90 97 1015.9
20200328164033 49 103 1.0 3.0 0.02 0.89 0.89 97 1016.3
20200328162036 49 152 1.0 4.0 0.07 0.88 0.88 97 1016.2
20200328161027 49 34 1.0 4.0 0.07 0.88 0.88 97 1016.4
20200328160052 49 148 3.0 5.0 0.07 0.88 0.88 97 1016.0
20200328155020 49 174 4.0 6.0 0.08 0.88 0.88 97 1015.6
20200328154030 49 140 2.0 7.0 0.11 0.87 0.87 97 1015.8
20200328153021 49 148 3.0 5.0 0.10 0.82 0.82 97 1015.8
20200328152032 49 132 3.0 5.0 0.10 0.81 0.81 97 1016.2
20200328151025 49 127 2.0 4.0 0.15 0.81 0.81 97 1016.5
20200328150050 49 111 1.0 5.0 0.16 0.81 0.81 97 1016.3
20200328145023 48 148 3.0 4.0 0.15 0.80 0.80 97 1016.0
20200328144036 48 129 1.0 6.0 0.11 0.76 0.76 97 1016.1
20200328143028 48 112 1.0 3.0 0.07 0.72 0.72 97 1016.6